Time;durP1;ratioP1;P1;durP2;ratioP2;P2;SDS_P1;SDS_P2;PMS_P1;PMS_P2;Temp;Humidity;BMP_temperature;BMP_pressure;BME280_temperature;BME280_humidity;BME280_pressure;Samples;Min_cycle;Max_cycle;Signal;HPM_P1;HPM_P2
2021/04/21 00:02:18;;;;;;;0.73;0.60;;;9.70;99.90;;;;;;5112965;27;20226;-80
2021/04/21 00:04:46;;;;;;;0.10;0.10;;;9.70;99.90;;;;;;5108167;28;20178;-81
2021/04/21 00:07:16;;;;;;;0.60;0.40;;;9.80;99.90;;;;;;5102945;28;20202;-81
2021/04/21 00:09:42;;;;;;;0.20;0.20;;;9.80;99.90;;;;;;5114788;27;20260;-79
2021/04/21 00:12:08;;;;;;;0.10;0.10;;;9.80;99.90;;;;;;5123472;27;20198;-81
2021/04/21 00:14:34;;;;;;;3.20;0.30;;;9.80;99.90;;;;;;5117104;28;20187;-80
2021/04/21 00:17:01;;;;;;;0.17;0.17;;;9.80;99.90;;;;;;5109563;28;20328;-80
2021/04/21 00:19:30;;;;;;;0.10;0.10;;;9.70;99.90;;;;;;5095695;28;20641;-79
2021/04/21 00:21:59;;;;;;;0.30;0.30;;;9.70;99.90;;;;;;5108553;28;20646;-81
2021/04/21 00:24:27;;;;;;;0.33;0.33;;;9.70;99.90;;;;;;5114348;28;20558;-81
2021/04/21 00:26:53;;;;;;;0.30;0.30;;;9.50;99.90;;;;;;5095488;27;20183;-81
2021/04/21 00:29:20;;;;;;;0.50;0.50;;;9.40;99.90;;;;;;5104241;27;20204;-81
2021/04/21 00:31:48;;;;;;;0.30;0.30;;;9.30;99.90;;;;;;5101264;28;22049;-81
2021/04/21 00:34:17;;;;;;;0.53;0.30;;;9.40;99.90;;;;;;5101872;28;20187;-80
2021/04/21 00:36:45;;;;;;;0.40;0.40;;;9.30;99.90;;;;;;5100065;28;20191;-81
2021/04/21 00:39:12;;;;;;;0.20;0.20;;;9.40;99.90;;;;;;5099590;28;20269;-81
2021/04/21 00:41:37;;;;;;;0.20;0.20;;;9.50;99.90;;;;;;5100538;28;20672;-81
2021/04/21 00:44:23;;;;;;;0.53;0.53;;;9.50;99.90;;;;;;5096475;28;20196;-80
2021/04/21 00:46:55;;;;;;;0.20;0.20;;;9.50;99.90;;;;;;5097039;28;20230;-80
2021/04/21 00:49:38;;;;;;;2.40;1.97;;;9.50;99.90;;;;;;5095288;28;20230;-80
2021/04/21 00:52:14;;;;;;;0.27;0.27;;;9.40;99.90;;;;;;5094140;28;20272;-81
2021/04/21 00:54:52;;;;;;;0.33;0.33;;;9.30;99.90;;;;;;5097863;28;20555;-81
2021/04/21 00:57:33;;;;;;;0.10;0.10;;;9.30;99.90;;;;;;5102895;28;20255;-81
2021/04/21 01:00:13;;;;;;;1.40;0.57;;;9.30;99.90;;;;;;5095878;28;20223;-79
2021/04/21 01:03:06;;;;;;;0.20;0.20;;;9.40;99.90;;;;;;5107539;27;20209;-80
2021/04/21 01:05:41;;;;;;;0.77;0.60;;;9.40;99.90;;;;;;5091458;28;20202;-81
2021/04/21 01:08:10;;;;;;;1.70;0.90;;;9.20;99.90;;;;;;5108365;28;20185;-81
2021/04/21 01:10:46;;;;;;;0.20;0.20;;;9.20;99.90;;;;;;5103811;27;20268;-80
2021/04/21 01:13:13;;;;;;;0.57;0.30;;;9.20;99.90;;;;;;5094842;28;20297;-80
2021/04/21 01:15:41;;;;;;;0.50;0.50;;;9.20;99.90;;;;;;5100955;28;20563;-81
2021/04/21 01:18:09;;;;;;;0.67;0.20;;;9.20;99.90;;;;;;5108301;28;20603;-79
2021/04/21 01:20:47;;;;;;;0.17;0.17;;;9.20;99.90;;;;;;5103359;28;20891;-81
2021/04/21 01:23:25;;;;;;;0.50;0.50;;;9.10;99.90;;;;;;5103025;28;20755;-81
2021/04/21 01:26:10;;;;;;;0.23;0.23;;;9.00;99.90;;;;;;5102176;28;20197;-80
2021/04/21 01:28:56;;;;;;;0.57;0.57;;;8.80;99.90;;;;;;5109225;28;20218;-79
2021/04/21 01:31:23;;;;;;;0.13;0.13;;;8.80;99.90;;;;;;5106054;28;20184;-79
2021/04/21 01:33:52;;;;;;;0.27;0.20;;;8.70;99.90;;;;;;5101690;28;20190;-80
2021/04/21 01:36:23;;;;;;;0.30;0.30;;;8.60;99.90;;;;;;5110272;27;20562;-80
2021/04/21 01:38:51;;;;;;;0.40;0.30;;;8.50;99.90;;;;;;5110268;27;20274;-81
2021/04/21 01:41:20;;;;;;;0.20;0.20;;;8.50;99.90;;;;;;5106083;28;20236;-81
2021/04/21 01:44:09;;;;;;;0.20;0.20;;;8.60;99.90;;;;;;5110894;28;20807;-80
2021/04/21 01:46:41;;;;;;;0.20;0.20;;;8.60;99.90;;;;;;5110549;28;20231;-79
2021/04/21 01:49:22;;;;;;;0.50;0.50;;;8.70;99.90;;;;;;5094790;28;20181;-80
2021/04/21 01:52:01;;;;;;;0.20;0.20;;;8.70;99.90;;;;;;5102841;28;20289;-80
2021/04/21 01:54:29;;;;;;;0.10;0.10;;;8.70;99.90;;;;;;5104863;28;20202;-81
2021/04/21 01:57:01;;;;;;;0.57;0.30;;;8.80;99.90;;;;;;5098466;28;20670;-80
2021/04/21 01:59:43;;;;;;;0.30;0.30;;;8.70;99.90;;;;;;5104728;28;20245;-80
2021/04/21 02:02:22;;;;;;;0.37;0.37;;;8.70;99.90;;;;;;5115103;27;20206;-80
2021/04/21 02:04:53;;;;;;;0.20;0.20;;;8.40;99.90;;;;;;5095158;28;20211;-80
2021/04/21 02:07:56;;;;;;;1.77;0.30;;;8.30;99.90;;;;;;5097070;28;20175;-80
2021/04/21 02:10:52;;;;;;;0.10;0.10;;;8.30;99.90;;;;;;5096739;27;20202;-80
2021/04/21 02:13:26;;;;;;;0.67;0.53;;;8.20;99.90;;;;;;5102888;27;20185;-81
2021/04/21 02:16:13;;;;;;;0.73;0.20;;;8.20;99.90;;;;;;5103780;28;20262;-81
2021/04/21 02:18:42;;;;;;;0.33;0.20;;;8.20;99.90;;;;;;5098495;28;20217;-80
2021/04/21 02:21:17;;;;;;;0.10;0.10;;;8.20;99.90;;;;;;5101441;28;20226;-80
2021/04/21 02:23:52;;;;;;;0.20;0.20;;;8.30;99.90;;;;;;5105009;28;20274;-81
2021/04/21 02:26:25;;;;;;;0.10;0.10;;;8.40;99.90;;;;;;5104595;28;20721;-80
2021/04/21 02:29:12;;;;;;;0.10;0.10;;;8.40;99.90;;;;;;5106519;28;20173;-80
2021/04/21 02:31:44;;;;;;;0.30;0.30;;;8.50;99.90;;;;;;5104579;28;20201;-80
2021/04/21 02:34:40;;;;;;;0.10;0.10;;;8.40;99.90;;;;;;5097916;28;20181;-80
2021/04/21 02:37:30;;;;;;;0.93;0.43;;;8.40;99.90;;;;;;5094680;28;20186;-80
2021/04/21 02:40:03;;;;;;;0.37;0.13;;;8.40;99.90;;;;;;5092098;28;20209;-80
2021/04/21 02:42:35;;;;;;;0.40;0.33;;;8.40;99.90;;;;;;5107147;28;20261;-80
2021/04/21 02:45:19;;;;;;;0.20;0.20;;;8.40;99.90;;;;;;5101037;28;20182;-80
2021/04/21 02:47:56;;;;;;;0.10;0.10;;;8.40;99.90;;;;;;5093379;28;20178;-80
2021/04/21 02:50:32;;;;;;;0.10;0.10;;;8.40;99.90;;;;;;5093561;28;20577;-81
2021/04/21 02:53:24;;;;;;;0.40;0.40;;;8.30;99.90;;;;;;5091814;28;20181;-81
2021/04/21 02:56:12;;;;;;;0.63;0.30;;;8.40;99.90;;;;;;5110756;28;20181;-79
2021/04/21 02:59:05;;;;;;;0.20;0.20;;;8.20;99.90;;;;;;5095429;28;20248;-81
2021/04/21 03:01:55;;;;;;;0.40;0.40;;;8.20;99.90;;;;;;5107586;27;20237;-81
2021/04/21 03:04:36;;;;;;;0.53;0.33;;;8.20;99.90;;;;;;5110005;28;20190;-80
2021/04/21 03:07:06;;;;;;;0.50;0.30;;;8.20;99.90;;;;;;5099286;28;20205;-80
2021/04/21 03:09:50;;;;;;;0.47;0.47;;;8.10;99.90;;;;;;5091332;28;20221;-80
2021/04/21 03:12:20;;;;;;;0.20;0.20;;;8.10;99.90;;;;;;5104154;27;20190;-81
2021/04/21 03:14:50;;;;;;;0.40;0.33;;;8.00;99.90;;;;;;5107317;28;20247;-80
2021/04/21 03:17:18;;;;;;;0.33;0.33;;;7.90;99.90;;;;;;5094424;28;20600;-80
2021/04/21 03:19:50;;;;;;;0.10;0.10;;;7.90;99.90;;;;;;5099527;28;20223;-80
2021/04/21 03:22:20;;;;;;;0.20;0.20;;;8.00;99.90;;;;;;5102989;28;20224;-80
2021/04/21 03:25:21;;;;;;;0.10;0.10;;;7.90;99.90;;;;;;5108625;28;20225;-80
2021/04/21 03:27:54;;;;;;;0.50;0.20;;;7.80;99.90;;;;;;5091837;28;20284;-79
2021/04/21 03:30:24;;;;;;;0.10;0.10;;;7.90;99.90;;;;;;5102272;28;20690;-80
2021/04/21 03:33:02;;;;;;;0.50;0.23;;;7.90;99.90;;;;;;5094595;28;20597;-81
2021/04/21 03:35:29;;;;;;;0.10;0.10;;;8.00;99.90;;;;;;5107786;28;20200;-80
2021/04/21 03:37:55;;;;;;;0.20;0.20;;;8.00;99.90;;;;;;5098085;28;20313;-80
2021/04/21 03:40:21;;;;;;;0.57;0.30;;;8.00;99.90;;;;;;5107751;28;20286;-83
2021/04/21 03:42:48;;;;;;;0.10;0.10;;;8.00;99.90;;;;;;5092663;28;20586;-83
2021/04/21 03:45:14;;;;;;;2.13;0.30;;;8.00;99.90;;;;;;5100159;28;20184;-82
2021/04/21 03:47:40;;;;;;;0.60;0.60;;;8.00;99.90;;;;;;5109910;28;20193;-80
2021/04/21 03:50:08;;;;;;;0.10;0.10;;;7.90;99.90;;;;;;5094627;28;20220;-79
2021/04/21 03:52:37;;;;;;;0.40;0.40;;;7.90;99.90;;;;;;5096384;28;20197;-80
2021/04/21 03:55:03;;;;;;;0.20;0.20;;;7.70;99.90;;;;;;5095737;28;20245;-80
2021/04/21 03:57:31;;;;;;;0.23;0.23;;;7.70;99.90;;;;;;5098512;28;20197;-80
2021/04/21 03:59:59;;;;;;;0.30;0.30;;;7.70;99.90;;;;;;5093721;28;20251;-79
2021/04/21 04:02:28;;;;;;;0.20;0.20;;;7.80;99.90;;;;;;5105107;27;21027;-80
2021/04/21 04:05:00;;;;;;;0.10;0.10;;;7.90;99.90;;;;;;5095434;28;20197;-80
2021/04/21 04:07:28;;;;;;;0.30;0.30;;;7.90;99.90;;;;;;5096049;28;20255;-80
2021/04/21 04:09:56;;;;;;;0.27;0.27;;;7.80;99.90;;;;;;5098535;28;20204;-81
2021/04/21 04:12:26;;;;;;;0.20;0.20;;;7.70;99.90;;;;;;5090831;28;20275;-81
2021/04/21 04:14:54;;;;;;;0.10;0.10;;;7.70;99.90;;;;;;5093465;28;20657;-80
2021/04/21 04:17:22;;;;;;;0.30;0.30;;;7.70;99.90;;;;;;5097040;28;20725;-80
2021/04/21 04:19:49;;;;;;;0.43;0.43;;;7.80;99.90;;;;;;5099589;28;20279;-80
2021/04/21 04:22:20;;;;;;;0.33;0.33;;;7.80;99.90;;;;;;5094206;28;20204;-79
2021/04/21 04:24:53;;;;;;;0.87;0.20;;;7.80;99.90;;;;;;5092310;28;20188;-80
2021/04/21 04:27:20;;;;;;;0.10;0.10;;;7.90;99.90;;;;;;5098905;28;20546;-80
2021/04/21 04:29:47;;;;;;;1.87;0.37;;;7.90;99.90;;;;;;5094785;28;20212;-80
2021/04/21 04:32:15;;;;;;;0.87;0.40;;;7.90;99.90;;;;;;5096815;28;20269;-80
2021/04/21 04:34:46;;;;;;;0.20;0.20;;;7.90;99.90;;;;;;5097817;28;20273;-81
2021/04/21 04:37:19;;;;;;;0.30;0.30;;;8.10;99.90;;;;;;5091951;28;20188;-80
2021/04/21 04:39:46;;;;;;;0.33;0.20;;;8.10;99.90;;;;;;5102307;28;20256;-80
2021/04/21 04:42:13;;;;;;;0.20;0.20;;;8.10;99.90;;;;;;5095836;28;20304;-80
2021/04/21 04:44:41;;;;;;;2.73;0.43;;;8.10;99.90;;;;;;5100054;28;20205;-80
2021/04/21 04:47:15;;;;;;;0.10;0.10;;;8.20;99.90;;;;;;5093368;28;20188;-80
2021/04/21 04:50:03;;;;;;;0.57;0.20;;;8.20;99.90;;;;;;5096124;28;20697;-80
2021/04/21 04:52:32;;;;;;;0.40;0.40;;;8.30;99.90;;;;;;5100564;28;20561;-80
2021/04/21 04:55:00;;;;;;;0.60;0.60;;;8.30;99.90;;;;;;5106785;28;20205;-80
2021/04/21 04:57:31;;;;;;;0.30;0.30;;;8.30;99.90;;;;;;5104072;27;20183;-81
2021/04/21 05:00:03;;;;;;;0.40;0.40;;;8.30;99.90;;;;;;5101753;27;20300;-79
2021/04/21 05:02:33;;;;;;;0.27;0.27;;;8.40;99.90;;;;;;5096639;27;20208;-80
2021/04/21 05:05:02;;;;;;;1.70;0.73;;;8.40;99.90;;;;;;5104560;28;20176;-80
2021/04/21 05:08:03;;;;;;;0.20;0.20;;;8.50;99.90;;;;;;5100283;28;20645;-80
2021/04/21 05:10:31;;;;;;;0.80;0.77;;;8.50;99.90;;;;;;5098090;27;20645;-79
2021/04/21 05:13:01;;;;;;;0.50;0.50;;;8.60;99.90;;;;;;5094017;28;20192;-80
2021/04/21 05:15:42;;;;;;;0.10;0.10;;;8.70;99.90;;;;;;5093515;28;20219;-81
2021/04/21 05:18:25;;;;;;;0.30;0.30;;;8.70;99.90;;;;;;5101589;28;20187;-83
2021/04/21 05:21:15;;;;;;;0.53;0.40;;;8.80;99.90;;;;;;5092438;28;20684;-81
2021/04/21 05:24:01;;;;;;;0.80;0.63;;;8.80;99.90;;;;;;5112512;28;20208;-83
2021/04/21 05:26:48;;;;;;;0.27;0.27;;;8.80;99.90;;;;;;5114318;28;20255;-79
2021/04/21 05:29:51;;;;;;;0.20;0.20;;;8.80;99.90;;;;;;5098912;28;20201;-79
2021/04/21 05:32:35;;;;;;;0.40;0.40;;;9.00;99.90;;;;;;5105604;28;20190;-79
2021/04/21 05:35:58;;;;;;;0.50;0.50;;;9.00;99.90;;;;;;5110494;28;20176;-79
2021/04/21 05:38:36;;;;;;;0.63;0.43;;;9.00;99.90;;;;;;5100982;28;20661;-79
2021/04/21 05:41:17;;;;;;;0.50;0.40;;;9.10;99.90;;;;;;5103657;28;20677;-79
2021/04/21 05:44:20;;;;;;;0.50;0.33;;;9.10;99.90;;;;;;5095129;28;20220;-79
2021/04/21 05:47:19;;;;;;;0.30;0.30;;;9.20;99.90;;;;;;5093682;28;20177;-79
2021/04/21 05:50:20;;;;;;;0.70;0.40;;;9.20;99.90;;;;;;5092235;28;20641;-79
2021/04/21 05:52:54;;;;;;;1.53;1.20;;;9.30;99.90;;;;;;5064916;28;20227;-79
2021/04/21 05:56:01;;;;;;;0.53;0.47;;;9.40;99.90;;;;;;5094754;28;20209;-82
2021/04/21 05:58:46;;;;;;;0.50;0.50;;;9.40;99.90;;;;;;5068799;28;20192;-83
2021/04/21 06:01:22;;;;;;;0.67;0.53;;;9.40;99.90;;;;;;5069209;28;20250;-82
2021/04/21 06:03:51;;;;;;;0.67;0.27;;;9.50;99.90;;;;;;5081653;28;20217;-79
2021/04/21 06:06:17;;;;;;;0.63;0.63;;;9.50;99.90;;;;;;5101604;28;20235;-80
2021/04/21 06:08:43;;;;;;;0.50;0.50;;;9.60;99.90;;;;;;5098453;28;20188;-82
2021/04/21 06:11:22;;;;;;;0.80;0.80;;;9.70;99.90;;;;;;5108186;27;20209;-82
2021/04/21 06:13:53;;;;;;;0.20;0.20;;;9.70;99.90;;;;;;5103120;28;20183;-82
2021/04/21 06:16:20;;;;;;;1.27;0.60;;;9.80;99.90;;;;;;5111487;28;20211;-82
2021/04/21 06:19:02;;;;;;;0.50;0.37;;;9.90;99.90;;;;;;5100976;28;20566;-82
2021/04/21 06:21:32;;;;;;;0.17;0.17;;;10.00;99.90;;;;;;5100772;28;20194;-82
2021/04/21 06:23:58;;;;;;;0.50;0.50;;;9.90;99.90;;;;;;5102336;28;20178;-81
2021/04/21 06:26:25;;;;;;;1.83;1.73;;;10.00;99.90;;;;;;5105236;28;20178;-81
2021/04/21 06:29:08;;;;;;;0.50;0.40;;;10.20;99.90;;;;;;5109981;28;20178;-82
2021/04/21 06:31:39;;;;;;;0.30;0.30;;;10.30;99.90;;;;;;5105007;28;20186;-82
2021/04/21 06:34:07;;;;;;;0.70;0.70;;;10.50;99.90;;;;;;5103587;28;20178;-81
2021/04/21 06:36:38;;;;;;;1.07;0.43;;;10.60;99.90;;;;;;5106645;28;20183;-82
2021/04/21 06:39:04;;;;;;;0.67;0.67;;;10.80;99.90;;;;;;5101103;28;20199;-82
2021/04/21 06:41:30;;;;;;;0.53;0.23;;;11.00;99.90;;;;;;5102402;28;20529;-83
2021/04/21 06:43:57;;;;;;;0.43;0.30;;;11.10;99.90;;;;;;5101970;28;20740;-82
2021/04/21 06:46:24;;;;;;;2.23;0.57;;;11.00;99.90;;;;;;5111737;28;20176;-82
2021/04/21 06:48:58;;;;;;;0.50;0.50;;;11.10;99.90;;;;;;5109363;28;20188;-82
2021/04/21 06:51:26;;;;;;;0.27;0.27;;;11.20;99.90;;;;;;5099074;28;20183;-82
2021/04/21 06:53:53;;;;;;;1.50;0.73;;;11.40;99.90;;;;;;5102837;28;20176;-82
2021/04/21 06:56:34;;;;;;;0.53;0.50;;;11.40;99.90;;;;;;5104070;28;20184;-82
2021/04/21 06:59:01;;;;;;;0.73;0.50;;;11.50;99.90;;;;;;5109743;27;20192;-82
2021/04/21 07:01:28;;;;;;;0.17;0.17;;;11.50;99.90;;;;;;5104065;28;20177;-82
2021/04/21 07:04:14;;;;;;;1.33;0.57;;;11.60;99.90;;;;;;5102827;28;20210;-82
2021/04/21 07:06:41;;;;;;;0.30;0.30;;;11.70;99.90;;;;;;5095915;27;20170;-81
2021/04/21 07:09:18;;;;;;;0.23;0.23;;;11.90;99.90;;;;;;5095320;28;20180;-80
2021/04/21 07:11:47;;;;;;;0.30;0.30;;;12.10;99.90;;;;;;5093573;28;20178;-79
2021/04/21 07:14:20;;;;;;;0.50;0.50;;;12.20;99.90;;;;;;5094977;28;20208;-79
2021/04/21 07:16:49;;;;;;;0.47;0.40;;;12.30;99.90;;;;;;5101192;28;20727;-79
2021/04/21 07:19:17;;;;;;;0.13;0.13;;;12.40;99.90;;;;;;5097632;28;20627;-81
2021/04/21 07:21:43;;;;;;;1.13;1.03;;;12.60;99.90;;;;;;5093172;28;20191;-81
2021/04/21 07:24:12;;;;;;;0.87;0.43;;;12.80;99.90;;;;;;5103973;28;20294;-81
2021/04/21 07:26:40;;;;;;;1.67;0.30;;;12.90;99.90;;;;;;5096636;28;20210;-81
2021/04/21 07:29:17;;;;;;;0.93;0.43;;;13.10;99.90;;;;;;5104443;28;20845;-81
2021/04/21 07:31:43;;;;;;;0.40;0.40;;;13.30;99.90;;;;;;5112396;28;20947;-81
2021/04/21 07:34:13;;;;;;;0.23;0.23;;;13.40;99.90;;;;;;5111162;28;20271;-81
2021/04/21 07:36:46;;;;;;;0.30;0.30;;;13.60;99.90;;;;;;5111852;28;20185;-82
2021/04/21 07:39:13;;;;;;;0.50;0.50;;;13.50;99.90;;;;;;5096106;28;20632;-81
2021/04/21 07:41:40;;;;;;;1.40;0.50;;;13.70;99.90;;;;;;5108631;28;20226;-82
2021/04/21 07:44:25;;;;;;;0.67;0.63;;;13.80;99.90;;;;;;5099449;28;20240;-81
2021/04/21 07:47:24;;;;;;;0.80;0.80;;;13.90;99.90;;;;;;5112907;28;20187;-81
2021/04/21 07:50:01;;;;;;;0.63;0.50;;;14.10;99.90;;;;;;5105070;28;20216;-81
2021/04/21 07:52:29;;;;;;;1.13;0.63;;;14.30;99.90;;;;;;5107689;28;20194;-82
2021/04/21 07:55:10;;;;;;;1.50;1.40;;;14.30;99.90;;;;;;5113085;28;20189;-81
2021/04/21 07:57:36;;;;;;;0.73;0.57;;;14.50;99.90;;;;;;5113290;28;20237;-81
2021/04/21 08:00:05;;;;;;;1.33;0.20;;;14.70;99.90;;;;;;5111341;28;20219;-82
2021/04/21 08:02:33;;;;;;;0.40;0.40;;;14.90;99.90;;;;;;5109847;28;20205;-81
2021/04/21 08:05:02;;;;;;;1.00;0.37;;;15.10;99.90;;;;;;5103209;28;20180;-82
2021/04/21 08:07:42;;;;;;;0.20;0.20;;;15.20;99.90;;;;;;5094700;28;20176;-82
2021/04/21 08:10:29;;;;;;;0.30;0.30;;;15.40;99.90;;;;;;5094316;28;20235;-81
2021/04/21 08:12:57;;;;;;;1.00;1.00;;;15.60;99.90;;;;;;5115026;28;20612;-81
2021/04/21 08:15:30;;;;;;;1.13;0.97;;;15.70;99.90;;;;;;5100524;28;20199;-85
2021/04/21 08:18:02;;;;;;;1.77;0.93;;;15.70;99.90;;;;;;5106487;28;20198;-79
2021/04/21 08:20:38;;;;;;;0.33;0.33;;;15.80;99.90;;;;;;5099728;28;20656;-79
2021/04/21 08:23:06;;;;;;;0.37;0.30;;;16.00;99.90;;;;;;5100943;28;20260;-79
2021/04/21 08:25:32;;;;;;;0.93;0.90;;;16.20;99.90;;;;;;5102012;28;20194;-79
2021/04/21 08:27:59;;;;;;;0.40;0.40;;;16.40;99.90;;;;;;5101779;28;20181;-80
2021/04/21 08:30:26;;;;;;;0.50;0.50;;;16.60;99.90;;;;;;5104019;28;20278;-80
2021/04/21 08:32:52;;;;;;;16.30;1.10;;;16.80;99.90;;;;;;5096370;28;20556;-80
2021/04/21 08:35:18;;;;;;;0.50;0.50;;;16.90;99.90;;;;;;5105830;28;20192;-80
2021/04/21 08:37:45;;;;;;;0.60;0.40;;;17.00;99.90;;;;;;5099124;28;20226;-80
2021/04/21 08:40:16;;;;;;;3.13;0.87;;;17.30;99.90;;;;;;5095249;28;20237;-80
2021/04/21 08:42:42;;;;;;;0.80;0.60;;;17.40;99.90;;;;;;5094304;28;20204;-80
2021/04/21 08:45:11;;;;;;;1.00;1.00;;;17.20;99.90;;;;;;5111191;28;20204;-79
2021/04/21 08:47:40;;;;;;;0.80;0.80;;;17.20;99.90;;;;;;5102700;28;20241;-79
2021/04/21 08:50:08;;;;;;;1.37;0.80;;;17.30;99.90;;;;;;5103112;28;20818;-79
2021/04/21 08:52:44;;;;;;;0.77;0.77;;;17.40;99.90;;;;;;5104218;27;20188;-80
2021/04/21 08:55:14;;;;;;;1.53;0.60;;;17.60;99.90;;;;;;5096052;28;20248;-80
2021/04/21 08:57:40;;;;;;;0.53;0.40;;;17.80;99.90;;;;;;5097262;28;20199;-79
2021/04/21 09:00:07;;;;;;;0.77;0.77;;;18.00;99.90;;;;;;5098818;28;20211;-80
2021/04/21 09:02:34;;;;;;;3.07;0.80;;;17.20;99.90;;;;;;5106948;27;20215;-77
2021/04/21 09:05:02;;;;;;;0.40;0.40;;;16.90;99.90;;;;;;5099977;28;20206;-80
2021/04/21 09:07:28;;;;;;;1.17;0.60;;;17.50;99.90;;;;;;5095711;28;20695;-80
2021/04/21 09:09:56;;;;;;;1.27;1.03;;;18.00;99.90;;;;;;5097094;28;20290;-80
2021/04/21 09:12:22;;;;;;;1.17;1.17;;;18.40;99.90;;;;;;5103015;27;20184;-80
2021/04/21 09:14:48;;;;;;;0.63;0.63;;;18.50;99.90;;;;;;5107356;28;20187;-80
2021/04/21 09:17:13;;;;;;;3.20;0.87;;;18.90;99.90;;;;;;5098062;27;20191;-80
2021/04/21 09:19:39;;;;;;;6.27;1.00;;;18.80;99.90;;;;;;5097046;28;20270;-80
2021/04/21 09:22:08;;;;;;;0.80;0.80;;;19.10;99.90;;;;;;5095813;28;20223;-80
2021/04/21 09:24:37;;;;;;;1.07;0.83;;;19.20;99.90;;;;;;5093664;28;20290;-80
2021/04/21 09:27:22;;;;;;;0.73;0.73;;;19.30;99.90;;;;;;5105998;28;20191;-79
2021/04/21 09:29:47;;;;;;;0.70;0.70;;;18.90;99.90;;;;;;5102830;27;20279;-80
2021/04/21 09:32:13;;;;;;;1.03;0.80;;;19.10;99.90;;;;;;5093570;27;20287;-79
2021/04/21 09:34:53;;;;;;;1.33;0.53;;;19.50;99.90;;;;;;5100123;28;20185;-80
2021/04/21 09:37:25;;;;;;;4.10;1.27;;;19.80;99.90;;;;;;5099163;28;20199;-80
2021/04/21 09:39:51;;;;;;;1.53;1.20;;;20.10;99.90;;;;;;5092552;28;20210;-79
2021/04/21 09:42:25;;;;;;;0.50;0.50;;;20.40;99.90;;;;;;5096923;28;20850;-80
2021/04/21 09:44:52;;;;;;;1.33;0.97;;;20.90;99.90;;;;;;5104151;28;20577;-80
2021/04/21 09:47:19;;;;;;;2.10;1.47;;;20.80;99.90;;;;;;5094944;28;20191;-80
2021/04/21 09:49:45;;;;;;;2.90;1.87;;;20.70;99.90;;;;;;5095923;28;20205;-80
2021/04/21 09:52:13;;;;;;;5.80;2.77;;;20.50;99.90;;;;;;5091669;28;20206;-80
2021/04/21 09:54:42;;;;;;;1.63;1.50;;;19.10;99.90;;;;;;5098273;28;20231;-80
2021/04/21 09:57:13;;;;;;;1.83;1.53;;;18.40;99.90;;;;;;5093129;28;20184;-80
2021/04/21 09:59:40;;;;;;;4.20;3.10;;;18.30;99.90;;;;;;5097537;28;20286;-80
2021/04/21 10:02:35;;;;;;;1.57;1.47;;;17.90;99.90;;;;;;5107047;27;20208;-80
2021/04/21 10:05:22;;;;;;;1.37;1.23;;;18.20;99.90;;;;;;5102823;28;20216;-79
2021/04/21 10:08:11;;;;;;;3.37;2.20;;;18.40;99.90;;;;;;5099237;28;20171;-79
2021/04/21 10:10:37;;;;;;;2.83;2.30;;;17.50;99.90;;;;;;5104165;27;20234;-80
2021/04/21 10:13:13;;;;;;;1.67;1.20;;;17.70;99.90;;;;;;5109311;27;20230;-80
2021/04/21 10:15:39;;;;;;;1.47;1.37;;;17.80;99.90;;;;;;5095752;28;20694;-79
2021/04/21 10:18:05;;;;;;;2.10;1.33;;;17.90;99.90;;;;;;5091577;28;20185;-80
2021/04/21 10:20:31;;;;;;;1.90;1.77;;;17.40;99.90;;;;;;5095806;28;20316;-80
2021/04/21 10:22:57;;;;;;;1.60;1.50;;;17.20;99.90;;;;;;5103073;28;20708;-79
2021/04/21 10:25:23;;;;;;;0.53;0.53;;;17.20;99.90;;;;;;5106574;28;20559;-79
2021/04/21 10:27:49;;;;;;;0.87;0.87;;;17.70;99.90;;;;;;5095894;28;20188;-78
2021/04/21 10:30:15;;;;;;;1.57;1.47;;;18.10;99.90;;;;;;5098563;28;20203;-79
2021/04/21 10:32:41;;;;;;;1.00;1.00;;;18.30;99.90;;;;;;5092276;28;20188;-79
2021/04/21 10:35:08;;;;;;;2.63;2.00;;;18.50;99.90;;;;;;5100479;28;20265;-79
2021/04/21 10:37:35;;;;;;;1.17;0.80;;;18.60;99.90;;;;;;5104388;27;20661;-80
2021/04/21 10:40:01;;;;;;;1.40;1.23;;;18.80;99.90;;;;;;5098321;27;20215;-80
2021/04/21 10:42:26;;;;;;;1.13;1.13;;;18.90;99.90;;;;;;5097962;28;20223;-80
2021/04/21 10:45:11;;;;;;;2.07;1.37;;;18.40;99.90;;;;;;5099185;28;20606;-80
2021/04/21 10:47:44;;;;;;;1.50;1.40;;;18.80;99.90;;;;;;5099081;28;20183;-80
2021/04/21 10:50:11;;;;;;;1.90;1.17;;;18.50;99.90;;;;;;5100166;28;20198;-79
2021/04/21 10:52:39;;;;;;;0.43;0.37;;;18.70;99.90;;;;;;5095761;28;20181;-79
2021/04/21 10:55:08;;;;;;;1.73;1.43;;;18.90;99.90;;;;;;5100396;28;20188;-80
2021/04/21 10:57:42;;;;;;;0.70;0.70;;;19.30;99.90;;;;;;5101586;28;20497;-80
2021/04/21 11:00:40;;;;;;;1.60;1.43;;;20.10;99.90;;;;;;5094942;27;20204;-80
2021/04/21 11:03:10;;;;;;;0.77;0.77;;;20.70;99.90;;;;;;5086861;28;20213;-79
2021/04/21 11:05:36;;;;;;;1.17;1.17;;;20.90;99.90;;;;;;5098685;28;20207;-80
2021/04/21 11:08:18;;;;;;;0.50;0.50;;;20.50;99.90;;;;;;5100316;28;20203;-80
2021/04/21 11:10:52;;;;;;;0.90;0.83;;;20.40;99.90;;;;;;5099806;28;20228;-79
2021/04/21 11:13:38;;;;;;;2.47;1.43;;;20.30;99.90;;;;;;5102333;28;20189;-80
2021/04/21 11:16:11;;;;;;;1.17;0.80;;;20.30;99.90;;;;;;5098491;28;20184;-80
2021/04/21 11:18:38;;;;;;;2.40;1.43;;;20.40;99.90;;;;;;5098342;28;20955;-79
2021/04/21 11:21:06;;;;;;;1.37;1.27;;;20.40;99.90;;;;;;5092126;28;20284;-78
2021/04/21 11:23:56;;;;;;;1.27;0.90;;;20.70;99.90;;;;;;5090070;28;20295;-80
2021/04/21 11:29:19;;;;;;;1.17;0.83;;;21.00;99.90;;;;;;5095139;28;20180;-80
2021/04/21 11:31:46;;;;;;;4.03;0.57;;;20.80;99.90;;;;;;5094530;28;20186;-80
2021/04/21 11:34:32;;;;;;;0.80;0.77;;;20.90;99.90;;;;;;5087577;28;20659;-80
2021/04/21 11:37:13;;;;;;;1.63;0.90;;;21.00;99.90;;;;;;5107473;28;20176;-80
2021/04/21 11:39:44;;;;;;;1.73;1.03;;;21.50;99.90;;;;;;5098641;28;20260;-80
2021/04/21 11:42:39;;;;;;;0.77;0.60;;;21.70;99.90;;;;;;5099538;28;20196;-80
2021/04/21 11:45:05;;;;;;;4.77;1.80;;;21.70;99.90;;;;;;5094386;28;20603;-79
2021/04/21 11:47:31;;;;;;;1.70;0.80;;;21.30;99.90;;;;;;5106433;28;20212;-79
2021/04/21 11:49:59;;;;;;;0.57;0.57;;;21.40;99.90;;;;;;5092704;28;20201;-80
2021/04/21 11:52:42;;;;;;;2.13;1.27;;;22.10;99.90;;;;;;5098679;28;20690;-80
2021/04/21 11:55:08;;;;;;;1.17;1.07;;;22.40;99.90;;;;;;5109893;28;20655;-81
2021/04/21 11:57:36;;;;;;;0.47;0.43;;;22.70;99.90;;;;;;5114657;28;20259;-80
2021/04/21 12:00:07;;;;;;;0.80;0.63;;;22.90;99.90;;;;;;5099822;28;20284;-80
2021/04/21 12:02:34;;;;;;;2.27;0.90;;;22.80;99.90;;;;;;5109135;27;20268;-81
2021/04/21 12:05:01;;;;;;;0.93;0.93;;;23.00;99.90;;;;;;5097598;28;20184;-80
2021/04/21 12:07:27;;;;;;;0.80;0.80;;;22.70;99.90;;;;;;5102425;28;20242;-82
2021/04/21 12:09:53;;;;;;;1.10;1.00;;;22.90;99.90;;;;;;5099404;28;20668;-81
2021/04/21 12:12:25;;;;;;;1.53;1.20;;;22.30;99.90;;;;;;5105194;27;20190;-80
2021/04/21 12:15:05;;;;;;;2.57;1.77;;;22.60;99.90;;;;;;5105783;28;20187;-81
2021/04/21 12:17:32;;;;;;;1.70;1.20;;;22.80;99.90;;;;;;5109602;28;20188;-81
2021/04/21 12:19:59;;;;;;;1.57;1.40;;;22.50;99.90;;;;;;5102415;28;20212;-81
2021/04/21 12:22:42;;;;;;;1.43;1.30;;;22.10;99.90;;;;;;5094476;28;20218;-81
2021/04/21 12:25:09;;;;;;;0.73;0.63;;;21.90;99.90;;;;;;5097885;28;20184;-81
2021/04/21 12:27:35;;;;;;;0.83;0.83;;;21.70;99.90;;;;;;5092704;28;20206;-81
2021/04/21 12:30:12;;;;;;;0.70;0.57;;;21.20;99.90;;;;;;5093553;28;20299;-81
2021/04/21 12:32:38;;;;;;;6.60;1.83;;;20.60;99.90;;;;;;5103067;28;20180;-81
2021/04/21 12:35:04;;;;;;;2.93;1.00;;;20.40;99.90;;;;;;5104077;28;20184;-84
2021/04/21 12:37:30;;;;;;;1.87;1.10;;;20.10;99.90;;;;;;5087588;28;20188;-83
2021/04/21 12:39:55;;;;;;;1.37;1.13;;;19.90;99.90;;;;;;5075664;28;20207;-81
2021/04/21 12:42:21;;;;;;;1.37;1.00;;;19.40;99.90;;;;;;5075676;28;20650;-81
2021/04/21 12:44:47;;;;;;;4.10;1.53;;;19.30;99.90;;;;;;5098105;28;20262;-80
2021/04/21 12:47:13;;;;;;;1.70;1.27;;;19.30;99.90;;;;;;5100221;28;20236;-82
2021/04/21 12:49:47;;;;;;;0.80;0.67;;;19.20;99.90;;;;;;5097657;28;20203;-82
2021/04/21 12:52:18;;;;;;;2.27;0.87;;;19.20;99.90;;;;;;5097296;28;20188;-81
2021/04/21 12:54:48;;;;;;;1.50;0.90;;;19.20;99.90;;;;;;5094317;28;20807;-80
2021/04/21 12:57:24;;;;;;;2.23;0.90;;;19.10;99.90;;;;;;5094580;28;20188;-80
2021/04/21 12:59:52;;;;;;;0.90;0.90;;;19.10;99.90;;;;;;5094864;28;20214;-80
2021/04/21 13:02:39;;;;;;;0.93;0.93;;;19.00;99.90;;;;;;5109477;27;20710;-80
2021/04/21 13:05:05;;;;;;;1.30;0.77;;;19.20;99.90;;;;;;5112109;27;20177;-81
2021/04/21 13:07:31;;;;;;;0.83;0.83;;;19.10;99.90;;;;;;5101852;28;20715;-81
2021/04/21 13:10:11;;;;;;;0.47;0.47;;;19.20;99.90;;;;;;5103830;28;20203;-80
2021/04/21 13:12:37;;;;;;;1.13;1.10;;;19.30;99.90;;;;;;5094891;28;20188;-81
2021/04/21 13:15:15;;;;;;;0.97;0.40;;;19.40;99.90;;;;;;5093867;28;20195;-81
2021/04/21 13:17:55;;;;;;;0.50;0.50;;;19.50;99.90;;;;;;5096418;28;20708;-81
2021/04/21 13:20:42;;;;;;;1.17;0.40;;;19.50;99.90;;;;;;5095863;28;20711;-81
2021/04/21 13:23:16;;;;;;;0.70;0.70;;;19.60;99.90;;;;;;5100876;28;20590;-80
2021/04/21 13:25:55;;;;;;;0.40;0.40;;;19.80;99.90;;;;;;5101977;28;20248;-80